sensor_id;sensor_type;location;lat;lon;timestamp;temperature;humidity
53653;DHT22;39553;52.954;5.932;2022-10-22T00:01:55;11.40;99.90
53653;DHT22;39553;52.954;5.932;2022-10-22T00:04:21;11.50;99.90
53653;DHT22;39553;52.954;5.932;2022-10-22T00:06:46;11.60;99.90
53653;DHT22;39553;52.954;5.932;2022-10-22T00:09:12;11.50;99.90
53653;DHT22;39553;52.954;5.932;2022-10-22T00:11:38;12.00;99.90
53653;DHT22;39553;52.954;5.932;2022-10-22T00:14:04;11.70;99.90
53653;DHT22;39553;52.954;5.932;2022-10-22T00:16:29;11.50;99.90
53653;DHT22;39553;52.954;5.932;2022-10-22T00:18:55;11.50;99.90
53653;DHT22;39553;52.954;5.932;2022-10-22T00:21:21;11.50;99.90
53653;DHT22;39553;52.954;5.932;2022-10-22T00:23:46;11.60;99.90
53653;DHT22;39553;52.954;5.932;2022-10-22T00:26:12;11.40;99.90
53653;DHT22;39553;52.954;5.932;2022-10-22T00:28:38;11.50;99.90
53653;DHT22;39553;52.954;5.932;2022-10-22T00:31:04;11.30;99.90
53653;DHT22;39553;52.954;5.932;2022-10-22T00:33:29;11.30;99.90
53653;DHT22;39553;52.954;5.932;2022-10-22T00:35:55;11.30;99.90
53653;DHT22;39553;52.954;5.932;2022-10-22T00:38:21;11.60;99.90
53653;DHT22;39553;52.954;5.932;2022-10-22T00:40:47;11.50;99.90
53653;DHT22;39553;52.954;5.932;2022-10-22T00:43:13;11.40;99.90
53653;DHT22;39553;52.954;5.932;2022-10-22T00:45:39;11.40;99.90
53653;DHT22;39553;52.954;5.932;2022-10-22T00:50:42;11.30;99.90
53653;DHT22;39553;52.954;5.932;2022-10-22T00:53:09;11.60;99.90
53653;DHT22;39553;52.954;5.932;2022-10-22T00:55:37;11.30;99.90
53653;DHT22;39553;52.954;5.932;2022-10-22T00:58:03;11.50;99.90
53653;DHT22;39553;52.954;5.932;2022-10-22T01:00:29;11.40;99.90
53653;DHT22;39553;52.954;5.932;2022-10-22T01:02:54;11.40;99.90
53653;DHT22;39553;52.954;5.932;2022-10-22T01:05:20;11.40;99.90
53653;DHT22;39553;52.954;5.932;2022-10-22T01:07:47;11.60;99.90
53653;DHT22;39553;52.954;5.932;2022-10-22T01:12:53;11.50;99.90
53653;DHT22;39553;52.954;5.932;2022-10-22T01:15:28;11.50;99.90
53653;DHT22;39553;52.954;5.932;2022-10-22T01:25:57;11.70;99.90
53653;DHT22;39553;52.954;5.932;2022-10-22T01:31:06;12.00;99.90
53653;DHT22;39553;52.954;5.932;2022-10-22T01:33:33;11.90;99.90
53653;DHT22;39553;52.954;5.932;2022-10-22T01:35:58;12.10;99.90
53653;DHT22;39553;52.954;5.932;2022-10-22T01:38:24;12.10;99.90
53653;DHT22;39553;52.954;5.932;2022-10-22T01:40:50;12.10;99.90
53653;DHT22;39553;52.954;5.932;2022-10-22T01:43:16;11.90;99.90
53653;DHT22;39553;52.954;5.932;2022-10-22T01:45:43;12.10;99.90
53653;DHT22;39553;52.954;5.932;2022-10-22T01:50:54;11.90;99.90
53653;DHT22;39553;52.954;5.932;2022-10-22T01:58:55;12.00;99.90
53653;DHT22;39553;52.954;5.932;2022-10-22T02:04:05;12.00;99.90
53653;DHT22;39553;52.954;5.932;2022-10-22T02:06:34;12.00;99.90
53653;DHT22;39553;52.954;5.932;2022-10-22T02:09:00;12.20;99.90
53653;DHT22;39553;52.954;5.932;2022-10-22T02:11:26;12.10;99.90
53653;DHT22;39553;52.954;5.932;2022-10-22T02:13:53;12.00;99.90
53653;DHT22;39553;52.954;5.932;2022-10-22T02:16:23;12.00;99.90
53653;DHT22;39553;52.954;5.932;2022-10-22T02:18:51;12.00;99.90
53653;DHT22;39553;52.954;5.932;2022-10-22T02:21:17;12.00;99.90
53653;DHT22;39553;52.954;5.932;2022-10-22T02:23:42;12.20;99.90
53653;DHT22;39553;52.954;5.932;2022-10-22T02:26:17;12.00;99.90
53653;DHT22;39553;52.954;5.932;2022-10-22T02:28:55;12.10;99.90
53653;DHT22;39553;52.954;5.932;2022-10-22T02:31:25;12.10;99.90
53653;DHT22;39553;52.954;5.932;2022-10-22T02:33:52;12.00;99.90
53653;DHT22;39553;52.954;5.932;2022-10-22T02:36:19;12.10;99.90
53653;DHT22;39553;52.954;5.932;2022-10-22T02:38:45;12.20;99.90
53653;DHT22;39553;52.954;5.932;2022-10-22T02:41:12;12.20;99.90
53653;DHT22;39553;52.954;5.932;2022-10-22T02:43:41;12.30;99.90
53653;DHT22;39553;52.954;5.932;2022-10-22T02:46:07;12.20;99.90
53653;DHT22;39553;52.954;5.932;2022-10-22T02:48:33;12.30;99.90
53653;DHT22;39553;52.954;5.932;2022-10-22T02:51:00;12.30;99.90
53653;DHT22;39553;52.954;5.932;2022-10-22T02:53:25;12.40;99.90
53653;DHT22;39553;52.954;5.932;2022-10-22T02:55:51;12.40;99.90
53653;DHT22;39553;52.954;5.932;2022-10-22T02:58:17;12.20;99.90
53653;DHT22;39553;52.954;5.932;2022-10-22T03:00:42;12.20;99.90
53653;DHT22;39553;52.954;5.932;2022-10-22T03:03:08;12.40;99.90
53653;DHT22;39553;52.954;5.932;2022-10-22T03:05:33;12.30;99.90
53653;DHT22;39553;52.954;5.932;2022-10-22T03:07:59;12.20;99.90
53653;DHT22;39553;52.954;5.932;2022-10-22T03:10:24;12.20;99.90
53653;DHT22;39553;52.954;5.932;2022-10-22T03:12:50;12.20;99.90
53653;DHT22;39553;52.954;5.932;2022-10-22T03:15:15;12.20;99.90
53653;DHT22;39553;52.954;5.932;2022-10-22T03:17:41;12.10;99.90
53653;DHT22;39553;52.954;5.932;2022-10-22T03:20:07;12.00;99.90
53653;DHT22;39553;52.954;5.932;2022-10-22T03:22:32;12.20;99.90
53653;DHT22;39553;52.954;5.932;2022-10-22T03:25:00;12.10;99.90
53653;DHT22;39553;52.954;5.932;2022-10-22T03:27:27;12.00;99.90
53653;DHT22;39553;52.954;5.932;2022-10-22T03:29:53;11.90;99.90
53653;DHT22;39553;52.954;5.932;2022-10-22T03:32:19;12.10;99.90
53653;DHT22;39553;52.954;5.932;2022-10-22T03:34:45;12.10;99.90
53653;DHT22;39553;52.954;5.932;2022-10-22T03:37:10;12.00;99.90
53653;DHT22;39553;52.954;5.932;2022-10-22T03:39:36;11.90;99.90
53653;DHT22;39553;52.954;5.932;2022-10-22T03:42:03;12.00;99.90
53653;DHT22;39553;52.954;5.932;2022-10-22T03:44:29;12.00;99.90
53653;DHT22;39553;52.954;5.932;2022-10-22T03:46:54;12.00;99.90
53653;DHT22;39553;52.954;5.932;2022-10-22T03:49:20;11.90;99.90
53653;DHT22;39553;52.954;5.932;2022-10-22T03:51:46;11.90;99.90
53653;DHT22;39553;52.954;5.932;2022-10-22T03:54:11;11.90;99.90
53653;DHT22;39553;52.954;5.932;2022-10-22T03:56:37;12.00;99.90
53653;DHT22;39553;52.954;5.932;2022-10-22T03:59:02;11.90;99.90
53653;DHT22;39553;52.954;5.932;2022-10-22T04:01:28;12.00;99.90
53653;DHT22;39553;52.954;5.932;2022-10-22T04:03:55;11.80;99.90
53653;DHT22;39553;52.954;5.932;2022-10-22T04:06:20;12.00;99.90
53653;DHT22;39553;52.954;5.932;2022-10-22T04:08:46;11.80;99.90
53653;DHT22;39553;52.954;5.932;2022-10-22T04:11:12;11.80;99.90
53653;DHT22;39553;52.954;5.932;2022-10-22T04:13:37;11.80;99.90
53653;DHT22;39553;52.954;5.932;2022-10-22T04:18:32;11.80;99.90
53653;DHT22;39553;52.954;5.932;2022-10-22T04:20:57;11.90;99.90
53653;DHT22;39553;52.954;5.932;2022-10-22T04:23:23;12.00;99.90
53653;DHT22;39553;52.954;5.932;2022-10-22T04:25:48;11.90;99.90
53653;DHT22;39553;52.954;5.932;2022-10-22T04:28:14;12.00;99.90
53653;DHT22;39553;52.954;5.932;2022-10-22T04:30:39;12.10;99.90
53653;DHT22;39553;52.954;5.932;2022-10-22T04:33:05;11.90;99.90
53653;DHT22;39553;52.954;5.932;2022-10-22T04:35:30;11.80;99.90
53653;DHT22;39553;52.954;5.932;2022-10-22T04:37:56;11.90;99.90
53653;DHT22;39553;52.954;5.932;2022-10-22T04:40:22;11.80;99.90
53653;DHT22;39553;52.954;5.932;2022-10-22T04:42:47;12.00;99.90
53653;DHT22;39553;52.954;5.932;2022-10-22T04:45:13;11.80;99.90
53653;DHT22;39553;52.954;5.932;2022-10-22T04:47:40;11.80;99.90
53653;DHT22;39553;52.954;5.932;2022-10-22T04:50:05;11.70;99.90
53653;DHT22;39553;52.954;5.932;2022-10-22T04:52:31;11.80;99.90
53653;DHT22;39553;52.954;5.932;2022-10-22T04:54:57;11.90;99.90
53653;DHT22;39553;52.954;5.932;2022-10-22T04:57:22;11.80;99.90
53653;DHT22;39553;52.954;5.932;2022-10-22T04:59:48;11.80;99.90
53653;DHT22;39553;52.954;5.932;2022-10-22T05:02:13;11.80;99.90
53653;DHT22;39553;52.954;5.932;2022-10-22T05:04:39;11.80;99.90
53653;DHT22;39553;52.954;5.932;2022-10-22T05:07:04;11.80;99.90
53653;DHT22;39553;52.954;5.932;2022-10-22T05:09:30;11.90;99.90
53653;DHT22;39553;52.954;5.932;2022-10-22T05:11:56;11.90;99.90
53653;DHT22;39553;52.954;5.932;2022-10-22T05:14:22;11.80;99.90
53653;DHT22;39553;52.954;5.932;2022-10-22T05:16:48;11.80;99.90
53653;DHT22;39553;52.954;5.932;2022-10-22T05:19:24;11.90;99.90
53653;DHT22;39553;52.954;5.932;2022-10-22T05:21:50;11.80;99.90
53653;DHT22;39553;52.954;5.932;2022-10-22T05:24:16;12.00;99.90
53653;DHT22;39553;52.954;5.932;2022-10-22T05:26:42;12.00;99.90
53653;DHT22;39553;52.954;5.932;2022-10-22T05:29:07;11.80;99.90
53653;DHT22;39553;52.954;5.932;2022-10-22T05:31:33;11.90;99.90
53653;DHT22;39553;52.954;5.932;2022-10-22T05:33:59;11.90;99.90
53653;DHT22;39553;52.954;5.932;2022-10-22T05:36:25;12.10;99.90
53653;DHT22;39553;52.954;5.932;2022-10-22T05:38:50;12.00;99.90
53653;DHT22;39553;52.954;5.932;2022-10-22T05:41:17;12.00;99.90
53653;DHT22;39553;52.954;5.932;2022-10-22T05:43:43;12.00;99.90
53653;DHT22;39553;52.954;5.932;2022-10-22T05:46:10;12.10;99.90
53653;DHT22;39553;52.954;5.932;2022-10-22T05:48:36;12.10;99.90
53653;DHT22;39553;52.954;5.932;2022-10-22T05:51:03;12.20;99.90
53653;DHT22;39553;52.954;5.932;2022-10-22T05:53:30;12.20;99.90
53653;DHT22;39553;52.954;5.932;2022-10-22T05:55:58;12.10;99.90
53653;DHT22;39553;52.954;5.932;2022-10-22T05:58:24;12.30;99.90
53653;DHT22;39553;52.954;5.932;2022-10-22T06:00:49;12.20;99.90
53653;DHT22;39553;52.954;5.932;2022-10-22T06:03:15;12.20;99.90
53653;DHT22;39553;52.954;5.932;2022-10-22T06:05:40;12.20;99.90
53653;DHT22;39553;52.954;5.932;2022-10-22T06:08:08;12.30;99.90
53653;DHT22;39553;52.954;5.932;2022-10-22T06:10:35;12.30;99.90
53653;DHT22;39553;52.954;5.932;2022-10-22T06:13:00;12.20;99.90
53653;DHT22;39553;52.954;5.932;2022-10-22T06:15:27;12.30;99.90
53653;DHT22;39553;52.954;5.932;2022-10-22T06:17:53;12.20;99.90
53653;DHT22;39553;52.954;5.932;2022-10-22T06:20:18;12.20;99.90
53653;DHT22;39553;52.954;5.932;2022-10-22T06:22:44;12.10;99.90
53653;DHT22;39553;52.954;5.932;2022-10-22T06:25:10;12.30;99.90
53653;DHT22;39553;52.954;5.932;2022-10-22T06:27:36;12.30;99.90
53653;DHT22;39553;52.954;5.932;2022-10-22T06:30:02;12.30;99.90
53653;DHT22;39553;52.954;5.932;2022-10-22T06:32:28;12.30;99.90
53653;DHT22;39553;52.954;5.932;2022-10-22T06:34:53;12.30;99.90
53653;DHT22;39553;52.954;5.932;2022-10-22T06:37:19;12.30;99.90
53653;DHT22;39553;52.954;5.932;2022-10-22T06:39:44;12.30;99.90
53653;DHT22;39553;52.954;5.932;2022-10-22T06:42:10;12.40;99.90
53653;DHT22;39553;52.954;5.932;2022-10-22T06:44:36;12.40;99.90
53653;DHT22;39553;52.954;5.932;2022-10-22T06:47:01;12.40;99.90
53653;DHT22;39553;52.954;5.932;2022-10-22T06:49:27;12.30;99.90
53653;DHT22;39553;52.954;5.932;2022-10-22T06:51:54;12.50;99.90
53653;DHT22;39553;52.954;5.932;2022-10-22T06:54:20;12.40;99.90
53653;DHT22;39553;52.954;5.932;2022-10-22T06:56:46;12.50;99.90
53653;DHT22;39553;52.954;5.932;2022-10-22T06:59:12;12.40;99.90
53653;DHT22;39553;52.954;5.932;2022-10-22T07:01:37;12.50;99.90
53653;DHT22;39553;52.954;5.932;2022-10-22T07:04:03;12.40;99.90
53653;DHT22;39553;52.954;5.932;2022-10-22T07:06:29;12.60;99.90
53653;DHT22;39553;52.954;5.932;2022-10-22T07:08:56;12.50;99.90
53653;DHT22;39553;52.954;5.932;2022-10-22T07:11:23;12.60;99.90
53653;DHT22;39553;52.954;5.932;2022-10-22T07:13:49;12.60;99.90
53653;DHT22;39553;52.954;5.932;2022-10-22T07:16:15;12.80;99.90
53653;DHT22;39553;52.954;5.932;2022-10-22T07:18:40;12.60;99.90
53653;DHT22;39553;52.954;5.932;2022-10-22T07:21:06;12.60;99.90
53653;DHT22;39553;52.954;5.932;2022-10-22T07:23:32;12.60;99.90
53653;DHT22;39553;52.954;5.932;2022-10-22T07:25:58;12.70;99.90
53653;DHT22;39553;52.954;5.932;2022-10-22T07:28:26;12.80;99.90
53653;DHT22;39553;52.954;5.932;2022-10-22T07:30:52;12.70;99.90
53653;DHT22;39553;52.954;5.932;2022-10-22T07:33:18;12.90;99.90
53653;DHT22;39553;52.954;5.932;2022-10-22T07:35:44;13.00;99.90
53653;DHT22;39553;52.954;5.932;2022-10-22T07:38:09;13.00;99.90
53653;DHT22;39553;52.954;5.932;2022-10-22T07:40:35;13.00;99.90
53653;DHT22;39553;52.954;5.932;2022-10-22T07:43:01;13.10;99.90
53653;DHT22;39553;52.954;5.932;2022-10-22T07:45:27;13.20;99.90
53653;DHT22;39553;52.954;5.932;2022-10-22T07:47:53;13.20;99.90
53653;DHT22;39553;52.954;5.932;2022-10-22T07:50:18;13.20;99.90
53653;DHT22;39553;52.954;5.932;2022-10-22T07:52:44;13.20;99.90
53653;DHT22;39553;52.954;5.932;2022-10-22T07:55:10;13.30;99.90
53653;DHT22;39553;52.954;5.932;2022-10-22T07:57:38;13.40;99.90
53653;DHT22;39553;52.954;5.932;2022-10-22T08:00:04;13.50;99.90
53653;DHT22;39553;52.954;5.932;2022-10-22T08:02:30;13.60;99.90
53653;DHT22;39553;52.954;5.932;2022-10-22T08:04:55;13.70;99.90
53653;DHT22;39553;52.954;5.932;2022-10-22T08:07:21;13.70;99.90
53653;DHT22;39553;52.954;5.932;2022-10-22T08:09:47;13.80;99.90
53653;DHT22;39553;52.954;5.932;2022-10-22T08:12:13;13.80;99.90
53653;DHT22;39553;52.954;5.932;2022-10-22T08:14:38;13.90;99.90
53653;DHT22;39553;52.954;5.932;2022-10-22T08:17:04;13.90;99.90
53653;DHT22;39553;52.954;5.932;2022-10-22T08:19:29;14.00;99.90
53653;DHT22;39553;52.954;5.932;2022-10-22T08:21:57;14.10;99.90
53653;DHT22;39553;52.954;5.932;2022-10-22T08:24:22;14.10;99.90
53653;DHT22;39553;52.954;5.932;2022-10-22T08:26:48;14.20;99.90
53653;DHT22;39553;52.954;5.932;2022-10-22T08:29:14;14.30;99.90
53653;DHT22;39553;52.954;5.932;2022-10-22T08:31:39;14.30;99.90
53653;DHT22;39553;52.954;5.932;2022-10-22T08:34:05;14.40;99.90
53653;DHT22;39553;52.954;5.932;2022-10-22T08:36:32;14.40;99.90
53653;DHT22;39553;52.954;5.932;2022-10-22T08:38:58;14.40;99.90
53653;DHT22;39553;52.954;5.932;2022-10-22T08:41:23;14.40;99.90
53653;DHT22;39553;52.954;5.932;2022-10-22T08:48:53;14.40;99.90
53653;DHT22;39553;52.954;5.932;2022-10-22T08:51:23;14.50;99.90
53653;DHT22;39553;52.954;5.932;2022-10-22T08:56:18;14.60;99.90
53653;DHT22;39553;52.954;5.932;2022-10-22T08:58:52;14.60;99.90
53653;DHT22;39553;52.954;5.932;2022-10-22T09:06:29;14.70;99.90
53653;DHT22;39553;52.954;5.932;2022-10-22T09:08:56;14.70;99.90
53653;DHT22;39553;52.954;5.932;2022-10-22T09:11:24;14.80;99.90
53653;DHT22;39553;52.954;5.932;2022-10-22T09:13:50;14.80;99.90
53653;DHT22;39553;52.954;5.932;2022-10-22T09:16:19;14.90;99.90
53653;DHT22;39553;52.954;5.932;2022-10-22T09:18:52;15.00;99.90
53653;DHT22;39553;52.954;5.932;2022-10-22T09:21:28;15.10;99.90
53653;DHT22;39553;52.954;5.932;2022-10-22T09:24:01;15.10;99.90
53653;DHT22;39553;52.954;5.932;2022-10-22T09:26:29;15.20;99.90
53653;DHT22;39553;52.954;5.932;2022-10-22T09:28:58;15.20;99.90
53653;DHT22;39553;52.954;5.932;2022-10-22T09:31:25;15.10;99.90
53653;DHT22;39553;52.954;5.932;2022-10-22T09:33:51;15.20;99.90
53653;DHT22;39553;52.954;5.932;2022-10-22T09:36:19;15.60;99.90
53653;DHT22;39553;52.954;5.932;2022-10-22T09:38:46;16.00;99.90
53653;DHT22;39553;52.954;5.932;2022-10-22T09:41:12;16.20;99.90
53653;DHT22;39553;52.954;5.932;2022-10-22T09:43:38;16.20;99.90
53653;DHT22;39553;52.954;5.932;2022-10-22T09:46:05;16.10;99.90
53653;DHT22;39553;52.954;5.932;2022-10-22T09:48:32;16.00;99.90
53653;DHT22;39553;52.954;5.932;2022-10-22T09:51:04;15.80;99.90
53653;DHT22;39553;52.954;5.932;2022-10-22T09:53:37;15.70;99.90
53653;DHT22;39553;52.954;5.932;2022-10-22T09:56:08;15.60;99.90
53653;DHT22;39553;52.954;5.932;2022-10-22T09:58:44;15.40;99.90
53653;DHT22;39553;52.954;5.932;2022-10-22T10:01:15;15.40;99.90
53653;DHT22;39553;52.954;5.932;2022-10-22T10:03:41;15.40;99.90
53653;DHT22;39553;52.954;5.932;2022-10-22T10:06:06;15.20;99.90
53653;DHT22;39553;52.954;5.932;2022-10-22T10:08:32;15.10;99.90
53653;DHT22;39553;52.954;5.932;2022-10-22T10:26:34;14.00;99.90
53653;DHT22;39553;52.954;5.932;2022-10-22T10:31:32;14.10;99.90
53653;DHT22;39553;52.954;5.932;2022-10-22T10:34:06;14.50;99.90
53653;DHT22;39553;52.954;5.932;2022-10-22T10:36:38;14.60;99.90
53653;DHT22;39553;52.954;5.932;2022-10-22T10:39:08;14.60;99.90
53653;DHT22;39553;52.954;5.932;2022-10-22T10:49:23;15.00;99.90
53653;DHT22;39553;52.954;5.932;2022-10-22T10:57:15;15.00;99.90
53653;DHT22;39553;52.954;5.932;2022-10-22T10:59:51;14.80;99.90
53653;DHT22;39553;52.954;5.932;2022-10-22T11:07:14;15.00;99.90
53653;DHT22;39553;52.954;5.932;2022-10-22T11:09:43;15.00;99.90
53653;DHT22;39553;52.954;5.932;2022-10-22T11:12:18;15.10;99.90
53653;DHT22;39553;52.954;5.932;2022-10-22T11:17:25;15.10;99.90
53653;DHT22;39553;52.954;5.932;2022-10-22T11:22:38;15.20;99.90
53653;DHT22;39553;52.954;5.932;2022-10-22T11:27:48;15.50;99.90
53653;DHT22;39553;52.954;5.932;2022-10-22T11:30:22;15.50;99.90
53653;DHT22;39553;52.954;5.932;2022-10-22T11:32:58;15.60;99.90
53653;DHT22;39553;52.954;5.932;2022-10-22T11:35:28;15.60;99.90
53653;DHT22;39553;52.954;5.932;2022-10-22T11:37:55;15.60;99.90
53653;DHT22;39553;52.954;5.932;2022-10-22T11:40:28;15.60;99.90
53653;DHT22;39553;52.954;5.932;2022-10-22T11:42:56;15.70;99.90
53653;DHT22;39553;52.954;5.932;2022-10-22T11:47:52;15.60;99.90
53653;DHT22;39553;52.954;5.932;2022-10-22T11:50:25;15.60;99.90
53653;DHT22;39553;52.954;5.932;2022-10-22T11:53:01;15.80;99.90
53653;DHT22;39553;52.954;5.932;2022-10-22T11:57:58;15.70;99.90
53653;DHT22;39553;52.954;5.932;2022-10-22T12:00:40;15.70;99.90
53653;DHT22;39553;52.954;5.932;2022-10-22T12:03:14;15.70;99.90
53653;DHT22;39553;52.954;5.932;2022-10-22T12:05:41;15.70;99.90
53653;DHT22;39553;52.954;5.932;2022-10-22T12:08:19;15.70;99.90
53653;DHT22;39553;52.954;5.932;2022-10-22T12:13:53;15.80;99.90
53653;DHT22;39553;52.954;5.932;2022-10-22T12:16:24;15.90;99.90
53653;DHT22;39553;52.954;5.932;2022-10-22T12:18:52;16.10;99.90
53653;DHT22;39553;52.954;5.932;2022-10-22T12:21:19;16.20;99.90
53653;DHT22;39553;52.954;5.932;2022-10-22T12:23:45;16.20;99.90
53653;DHT22;39553;52.954;5.932;2022-10-22T12:26:24;16.20;99.90
53653;DHT22;39553;52.954;5.932;2022-10-22T12:28:50;16.20;99.90
53653;DHT22;39553;52.954;5.932;2022-10-22T12:31:20;16.20;99.90
53653;DHT22;39553;52.954;5.932;2022-10-22T12:33:46;16.20;99.90
53653;DHT22;39553;52.954;5.932;2022-10-22T12:36:15;16.30;99.90
53653;DHT22;39553;52.954;5.932;2022-10-22T12:38:44;16.30;99.90
53653;DHT22;39553;52.954;5.932;2022-10-22T12:41:11;16.40;99.90
53653;DHT22;39553;52.954;5.932;2022-10-22T12:43:37;16.40;99.90
53653;DHT22;39553;52.954;5.932;2022-10-22T12:46:03;16.40;99.90
53653;DHT22;39553;52.954;5.932;2022-10-22T12:48:30;16.40;99.90
53653;DHT22;39553;52.954;5.932;2022-10-22T12:51:02;16.40;99.90
53653;DHT22;39553;52.954;5.932;2022-10-22T12:53:30;16.60;99.90
53653;DHT22;39553;52.954;5.932;2022-10-22T12:56:06;16.50;99.90
53653;DHT22;39553;52.954;5.932;2022-10-22T13:01:28;16.50;99.90
53653;DHT22;39553;52.954;5.932;2022-10-22T13:04:16;16.40;99.90
53653;DHT22;39553;52.954;5.932;2022-10-22T13:06:44;16.20;99.90
53653;DHT22;39553;52.954;5.932;2022-10-22T13:09:15;15.90;99.90
53653;DHT22;39553;52.954;5.932;2022-10-22T13:11:47;15.40;99.90
53653;DHT22;39553;52.954;5.932;2022-10-22T13:14:18;15.00;99.90
53653;DHT22;39553;52.954;5.932;2022-10-22T13:17:01;14.80;99.90
53653;DHT22;39553;52.954;5.932;2022-10-22T13:22:01;14.70;99.90
53653;DHT22;39553;52.954;5.932;2022-10-22T13:24:27;14.70;99.90
53653;DHT22;39553;52.954;5.932;2022-10-22T13:26:54;14.80;99.90
53653;DHT22;39553;52.954;5.932;2022-10-22T13:29:20;14.90;99.90
53653;DHT22;39553;52.954;5.932;2022-10-22T13:31:47;14.90;99.90
53653;DHT22;39553;52.954;5.932;2022-10-22T13:34:21;15.00;99.90
53653;DHT22;39553;52.954;5.932;2022-10-22T13:36:47;15.00;99.90
53653;DHT22;39553;52.954;5.932;2022-10-22T13:39:17;15.10;99.90
53653;DHT22;39553;52.954;5.932;2022-10-22T13:41:43;15.30;99.90
53653;DHT22;39553;52.954;5.932;2022-10-22T13:44:09;15.40;99.90
53653;DHT22;39553;52.954;5.932;2022-10-22T13:46:34;15.30;99.90
53653;DHT22;39553;52.954;5.932;2022-10-22T13:49:09;15.50;99.90
53653;DHT22;39553;52.954;5.932;2022-10-22T13:51:38;15.60;99.90
53653;DHT22;39553;52.954;5.932;2022-10-22T13:54:05;15.80;99.90
53653;DHT22;39553;52.954;5.932;2022-10-22T13:56:31;15.90;99.90
53653;DHT22;39553;52.954;5.932;2022-10-22T13:58:57;16.00;99.90
53653;DHT22;39553;52.954;5.932;2022-10-22T14:01:24;16.20;99.90
53653;DHT22;39553;52.954;5.932;2022-10-22T14:03:51;16.50;99.90
53653;DHT22;39553;52.954;5.932;2022-10-22T14:06:17;16.40;99.90
53653;DHT22;39553;52.954;5.932;2022-10-22T14:08:44;16.30;99.90
53653;DHT22;39553;52.954;5.932;2022-10-22T14:11:11;16.20;99.90
53653;DHT22;39553;52.954;5.932;2022-10-22T14:13:37;16.10;99.90
53653;DHT22;39553;52.954;5.932;2022-10-22T14:16:03;16.00;99.90
53653;DHT22;39553;52.954;5.932;2022-10-22T14:18:29;16.00;99.90
53653;DHT22;39553;52.954;5.932;2022-10-22T14:20:58;16.00;99.90
53653;DHT22;39553;52.954;5.932;2022-10-22T14:23:25;16.00;99.90
53653;DHT22;39553;52.954;5.932;2022-10-22T14:25:53;16.10;99.90
53653;DHT22;39553;52.954;5.932;2022-10-22T14:28:18;16.10;99.90
53653;DHT22;39553;52.954;5.932;2022-10-22T14:30:44;15.90;99.90
53653;DHT22;39553;52.954;5.932;2022-10-22T14:33:29;15.90;99.90
53653;DHT22;39553;52.954;5.932;2022-10-22T14:35:55;15.80;99.90
53653;DHT22;39553;52.954;5.932;2022-10-22T14:38:21;15.70;99.90
53653;DHT22;39553;52.954;5.932;2022-10-22T14:40:47;15.70;99.90
53653;DHT22;39553;52.954;5.932;2022-10-22T14:43:15;15.60;99.90
53653;DHT22;39553;52.954;5.932;2022-10-22T14:45:41;15.60;99.90
53653;DHT22;39553;52.954;5.932;2022-10-22T14:48:07;15.50;99.90
53653;DHT22;39553;52.954;5.932;2022-10-22T14:50:32;15.50;99.90
53653;DHT22;39553;52.954;5.932;2022-10-22T14:52:58;15.50;99.90
53653;DHT22;39553;52.954;5.932;2022-10-22T14:55:24;15.40;99.90
53653;DHT22;39553;52.954;5.932;2022-10-22T14:57:51;15.40;99.90
53653;DHT22;39553;52.954;5.932;2022-10-22T15:00:17;15.40;99.90
53653;DHT22;39553;52.954;5.932;2022-10-22T15:02:43;15.40;99.90
53653;DHT22;39553;52.954;5.932;2022-10-22T15:05:09;15.30;99.90
53653;DHT22;39553;52.954;5.932;2022-10-22T15:07:35;15.20;99.90
53653;DHT22;39553;52.954;5.932;2022-10-22T15:10:02;15.20;99.90
53653;DHT22;39553;52.954;5.932;2022-10-22T15:12:27;15.10;99.90
53653;DHT22;39553;52.954;5.932;2022-10-22T15:14:53;15.20;99.90
53653;DHT22;39553;52.954;5.932;2022-10-22T15:17:18;15.20;99.90
53653;DHT22;39553;52.954;5.932;2022-10-22T15:19:44;15.20;99.90
53653;DHT22;39553;52.954;5.932;2022-10-22T15:22:13;15.20;99.90
53653;DHT22;39553;52.954;5.932;2022-10-22T15:24:39;15.20;99.90
53653;DHT22;39553;52.954;5.932;2022-10-22T15:27:05;15.20;99.90
53653;DHT22;39553;52.954;5.932;2022-10-22T15:29:31;15.10;99.90
53653;DHT22;39553;52.954;5.932;2022-10-22T15:31:57;15.00;99.90
53653;DHT22;39553;52.954;5.932;2022-10-22T15:34:27;14.90;99.90
53653;DHT22;39553;52.954;5.932;2022-10-22T15:36:54;14.90;99.90
53653;DHT22;39553;52.954;5.932;2022-10-22T15:39:20;14.80;99.90
53653;DHT22;39553;52.954;5.932;2022-10-22T15:41:46;14.70;99.90
53653;DHT22;39553;52.954;5.932;2022-10-22T15:44:16;14.70;99.90
53653;DHT22;39553;52.954;5.932;2022-10-22T15:46:42;14.60;99.90
53653;DHT22;39553;52.954;5.932;2022-10-22T15:49:08;14.60;99.90
53653;DHT22;39553;52.954;5.932;2022-10-22T15:51:33;14.50;99.90
53653;DHT22;39553;52.954;5.932;2022-10-22T15:53:59;14.50;99.90
53653;DHT22;39553;52.954;5.932;2022-10-22T15:56:26;14.50;99.90
53653;DHT22;39553;52.954;5.932;2022-10-22T15:59:01;14.40;99.90
53653;DHT22;39553;52.954;5.932;2022-10-22T16:01:28;14.30;99.90
53653;DHT22;39553;52.954;5.932;2022-10-22T16:03:53;14.30;99.90
53653;DHT22;39553;52.954;5.932;2022-10-22T16:06:31;14.20;99.90
53653;DHT22;39553;52.954;5.932;2022-10-22T16:08:57;14.20;99.90
53653;DHT22;39553;52.954;5.932;2022-10-22T16:11:24;14.00;99.90
53653;DHT22;39553;52.954;5.932;2022-10-22T16:13:56;14.00;99.90
53653;DHT22;39553;52.954;5.932;2022-10-22T16:16:26;14.00;99.90
53653;DHT22;39553;52.954;5.932;2022-10-22T16:18:52;14.00;99.90
53653;DHT22;39553;52.954;5.932;2022-10-22T16:21:18;13.90;99.90
53653;DHT22;39553;52.954;5.932;2022-10-22T16:23:45;13.80;99.90
53653;DHT22;39553;52.954;5.932;2022-10-22T16:26:11;13.80;99.90
53653;DHT22;39553;52.954;5.932;2022-10-22T16:28:38;13.70;99.90
53653;DHT22;39553;52.954;5.932;2022-10-22T16:31:05;13.60;99.90
53653;DHT22;39553;52.954;5.932;2022-10-22T16:33:31;13.60;99.90
53653;DHT22;39553;52.954;5.932;2022-10-22T16:35:57;13.50;99.90
53653;DHT22;39553;52.954;5.932;2022-10-22T16:38:23;13.40;99.90
53653;DHT22;39553;52.954;5.932;2022-10-22T16:40:49;13.40;99.90
53653;DHT22;39553;52.954;5.932;2022-10-22T16:43:14;13.30;99.90
53653;DHT22;39553;52.954;5.932;2022-10-22T16:45:47;13.20;99.90
53653;DHT22;39553;52.954;5.932;2022-10-22T16:48:13;13.30;99.90
53653;DHT22;39553;52.954;5.932;2022-10-22T16:50:39;13.20;99.90
53653;DHT22;39553;52.954;5.932;2022-10-22T16:53:04;13.20;99.90
53653;DHT22;39553;52.954;5.932;2022-10-22T16:55:31;13.20;99.90
53653;DHT22;39553;52.954;5.932;2022-10-22T16:57:59;13.30;99.90
53653;DHT22;39553;52.954;5.932;2022-10-22T17:00:25;13.20;99.90
53653;DHT22;39553;52.954;5.932;2022-10-22T17:02:51;13.20;99.90
53653;DHT22;39553;52.954;5.932;2022-10-22T17:05:17;13.10;99.90
53653;DHT22;39553;52.954;5.932;2022-10-22T17:07:43;13.10;99.90
53653;DHT22;39553;52.954;5.932;2022-10-22T17:10:08;13.00;99.90